Terminal Aerodrome Forecast
Issued by NWS Melbourne, FL

Home | Current Version | Previous Version | Text Only | Print | Product List | Glossary On
Versions: 1 2 3 4 5 6 7 8 9 10 11 12 13 14 15 16
000
FTUS42 KMLB 300500
TAFMLB
TAF
KMLB 300540Z 3006/3106 24005KT P6SM FEW025 SCT250
     FM301200 VRB03KT P6SM SCT025 SCT250
     FM301800 10008KT P6SM SCT035 SCT060 SCT250
     FM310100 VRB04KT P6SM SCT060 SCT100 SCT250=

USA.gov is the U.S. government's official web portal to all federal, state and local government web resources and services.